Elkhorn, Canada
Current Conditions -  °F | °C
As of 8:00 PM on Sunday 25 Jan 2015 (Local Time) from CYBR Reporting Station
Overcast Overcast  
Wind Chill: 17°   Ceiling: 11000
Heat Index: 30°   Visibility: 12mi
Dew Point: 28°   Wind: 23mph
Humidity: 93%   Direction: 210°SSW
Pressure: 29.61"   Gusts: NA
Location:  49.97°N, 101.25°W
Report Text: CYBR 260200Z 21020KT 12SM FEW005 SCT071 OVC110 M01/M02 A2961 RMK SF1AC2AC5 PRESFR SLP053
Loading
Personal Weather Stations






























Interactive Weather Map New forecast layout! Learn more

10-Day Weather Forecast

Advertisements
Track Severe Weather on mobile